Terminal Aerodrome Forecast
Issued by NWS Lake Charles, LA

Home | Current Version | Previous Version | Text Only | Print | Product List | Glossary On
Versions: 1 2 3 4 5 6 7 8 9 10 11 12 13 14 15 16 17
000
FTUS44 KLCH 180300 AAA
TAFLFT
TAF AMD
KLFT 180308Z 1803/1824 05004KT P6SM OVC018
     FM180900 36005KT 6SM BR BKN009 OVC012
      TEMPO 1810/1814 3SM BR
     FM181400 01008KT P6SM SCT012 BKN029 BKN100
     FM181800 01007KT P6SM SCT030 SCT080=

USA.gov is the U.S. government's official web portal to all federal, state and local government web resources and services.